Stations météo

Publicité
Salsburgh, Grande-Bretagne (99024): Température de l'air & dewpoint: 15.04.2018 12:00:00 - 21.04.2018 12:00:00 (BST)Salsburgh, Grande-Bretagne (99024): Vitesse du vent & gusts: 15.04.2018 12:00:00 - 21.04.2018 12:00:00 (BST)Salsburgh, Grande-Bretagne (99024): Direction du vent: 15.04.2018 12:00:00 - 21.04.2018 12:00:00 (BST)Salsburgh, Grande-Bretagne (99024): Quantités de précipitations: 15.04.2018 12:00:00 - 21.04.2018 12:00:00 (BST)
Date & Time tt [°C] td [°C] ff [km/h] ff [knt] fx [km/h] fx [knt] dd rr [mm]
21.04.2018 12:00:00 12,3 6,1 16 9 - - SSW 0,0
21.04.2018 11:00:00 11,6 6,3 18 10 - - S 0,0
21.04.2018 10:00:00 10,1 6,1 15 8 - - S 0,0
21.04.2018 09:00:00 8,8 7,1 16 9 - - SSE 0,0
21.04.2018 08:00:00 6,2 5,2 16 9 - - S 0,0
21.04.2018 07:00:00 5,9 4,9 16 9 - - SSE 0,0
21.04.2018 06:00:00 5,6 4,2 9 5 - - S 0,0
21.04.2018 05:00:00 5,4 4,2 11 6 - - SSE 0,0
21.04.2018 04:00:00 5,1 4,1 11 6 - - SSE 0,0
21.04.2018 03:00:00 6,4 4,9 8 4 - - SSW 0,0
21.04.2018 02:00:00 5,9 4,7 9 5 - - SSW 0,0
21.04.2018 01:00:00 5,7 4,6 9 5 - - S 0,0
21.04.2018 00:00:00 5,8 4,2 9 5 - - SSW 0,0
20.04.2018 23:00:00 6,4 4,5 9 5 - - SW 0,0
20.04.2018 22:00:00 6,4 4,2 9 5 - - SSW 0,0
20.04.2018 21:00:00 8,1 5,2 15 8 - - WSW 0,0
20.04.2018 20:00:00 9,5 5,2 18 10 - - W 0,0
20.04.2018 19:00:00 10,5 6,2 26 14 - - W 0,0
20.04.2018 18:00:00 11,7 6,0 22 12 - - W 0,0
20.04.2018 17:00:00 11,6 6,1 29 16 46 25 WSW 0,0
20.04.2018 16:00:00 12,0 5,9 28 15 - - WSW 0,0
20.04.2018 15:00:00 10,9 4,9 29 16 - - W 0,0
20.04.2018 14:00:00 13,2 6,1 29 16 - - WSW 0,0
20.04.2018 13:00:00 12,8 6,6 29 16 - - WSW 0,0
20.04.2018 12:00:00 11,5 6,1 26 14 - - W 0,0
20.04.2018 11:00:00 11,1 7,2 22 12 - - W 0,0
20.04.2018 10:00:00 9,1 7,1 22 12 - - WSW 0,0
20.04.2018 09:00:00 8,7 8,2 13 7 - - W 0,0
20.04.2018 08:00:00 8,4 7,8 13 7 - - SSW 0,0
20.04.2018 07:00:00 8,0 7,7 11 6 - - S 0,0
20.04.2018 06:00:00 7,6 7,3 15 8 - - S 0,0
20.04.2018 05:00:00 6,9 6,8 11 6 - - S 0,0
20.04.2018 04:00:00 6,6 6,3 11 6 - - S 0,0
20.04.2018 03:00:00 7,1 6,6 11 6 - - S 0,0
20.04.2018 02:00:00 7,4 6,9 13 7 - - S 0,0
20.04.2018 01:00:00 8,0 7,2 18 10 - - S 0,0
20.04.2018 00:00:00 8,1 7,3 16 9 - - SSE 0,0
19.04.2018 23:00:00 8,7 7,8 18 10 - - SSE 0,0
19.04.2018 22:00:00 8,9 8,1 15 8 - - SSE 0,0
19.04.2018 21:00:00 10,1 8,6 15 8 - - S 0,0
19.04.2018 20:00:00 12,4 9,2 15 8 - - SSW 0,0
19.04.2018 19:00:00 13,9 9,2 21 11 - - SSW 0,0
19.04.2018 18:00:00 15,0 9,1 21 11 - - SSW 0,0
19.04.2018 17:00:00 14,9 9,1 22 12 - - SW 0,0
19.04.2018 16:00:00 15,0 11,2 26 14 - - SSW 0,0
19.04.2018 15:00:00 14,2 11,0 22 12 - - W 0,0
19.04.2018 14:00:00 13,3 10,8 21 11 - - WSW 0,0
19.04.2018 13:00:00 13,3 10,4 18 10 - - SW 0,0
19.04.2018 12:00:00 14,0 10,2 28 15 48 26 SSW 0,0
19.04.2018 11:00:00 14,2 10,4 29 16 - - SSW 0,0
19.04.2018 10:00:00 13,7 10,3 26 14 - - S 0,0
19.04.2018 09:00:00 12,2 9,3 28 15 - - SSW -
19.04.2018 08:00:00 - - - - - - - -
19.04.2018 07:00:00 - - - - - - - -
19.04.2018 06:00:00 - - - - - - - -
19.04.2018 05:00:00 - - - - - - - -
19.04.2018 04:00:00 - - - - - - - -
19.04.2018 03:00:00 - - - - - - - -
19.04.2018 02:00:00 13,1 9,1 16 9 - - SSW 0,0
19.04.2018 01:00:00 13,4 9,9 18 10 - - S 0,0
19.04.2018 00:00:00 13,9 10,5 13 7 - - SSW 0,0
18.04.2018 23:00:00 14,0 10,3 24 13 - - SSE 0,0
18.04.2018 22:00:00 13,1 10,0 18 10 - - ESE 0,0
18.04.2018 21:00:00 12,9 9,4 18 10 - - ESE 0,0
18.04.2018 20:00:00 13,0 9,3 16 9 - - SSE 0,0
18.04.2018 19:00:00 13,3 9,9 26 14 46 25 S 0,0
18.04.2018 18:00:00 13,2 9,8 37 20 52 28 S 0,0
18.04.2018 17:00:00 13,6 10,2 37 20 50 27 S 0,0
18.04.2018 16:00:00 12,5 10,3 39 21 52 28 S 0,0
18.04.2018 15:00:00 11,8 10,0 35 19 63 34 S 0,0
18.04.2018 14:00:00 12,5 10,1 35 19 52 28 S 0,0
18.04.2018 13:00:00 11,6 10,0 35 19 57 31 SSW 0,0
18.04.2018 12:00:00 11,8 10,2 41 22 55 30 SSW 0,0
18.04.2018 11:00:00 11,6 10,1 34 18 50 27 SSW 0,0
18.04.2018 10:00:00 11,3 10,2 31 17 - - S 0,0
18.04.2018 09:00:00 10,3 10,0 31 17 - - S 0,4
18.04.2018 08:00:00 9,5 9,3 31 17 - - S 0,2
18.04.2018 07:00:00 9,2 8,9 29 16 52 28 S 0,0
18.04.2018 06:00:00 8,9 8,2 41 22 55 30 S 0,0
18.04.2018 05:00:00 8,7 7,8 39 21 55 30 S 0,0
18.04.2018 04:00:00 8,7 7,2 29 16 - - S 0,0
18.04.2018 03:00:00 8,8 7,0 37 20 59 32 S 0,0
18.04.2018 02:00:00 8,7 7,3 42 23 61 33 S 0,0
18.04.2018 01:00:00 8,0 6,8 35 19 54 29 S 0,0
18.04.2018 00:00:00 8,5 7,1 41 22 55 30 S 0,0
17.04.2018 23:00:00 8,6 7,2 39 21 59 32 S 0,0
17.04.2018 22:00:00 9,0 7,3 44 24 70 38 S 0,0
17.04.2018 21:00:00 9,3 7,5 50 27 74 40 SSW 0,0
17.04.2018 20:00:00 9,5 7,4 55 30 70 38 S 0,0
17.04.2018 19:00:00 10,6 7,8 44 24 67 36 S 0,0
17.04.2018 18:00:00 11,3 7,9 44 24 72 39 S 0,0
17.04.2018 17:00:00 11,3 8,0 50 27 70 38 S 0,0
17.04.2018 16:00:00 11,5 7,8 44 24 72 39 S 0,0
17.04.2018 15:00:00 10,8 7,6 52 28 72 39 S 0,0
17.04.2018 14:00:00 10,9 7,7 52 28 74 40 S 0,0
17.04.2018 13:00:00 9,7 8,3 48 26 63 34 S 0,2
17.04.2018 12:00:00 10,6 8,2 44 24 68 37 S 0,0
17.04.2018 11:00:00 10,4 8,6 46 25 65 35 S 0,0
17.04.2018 10:00:00 9,9 7,9 50 27 72 39 SSW 0,0
17.04.2018 09:00:00 9,0 8,0 46 25 74 40 S 0,2
17.04.2018 08:00:00 8,9 7,8 52 28 87 47 S 0,0
17.04.2018 07:00:00 9,1 7,2 63 34 83 45 S 0,0
17.04.2018 06:00:00 8,7 6,7 50 27 78 42 S 0,0
17.04.2018 05:00:00 8,2 5,7 48 26 70 38 S 0,0
17.04.2018 04:00:00 8,4 5,0 50 27 72 39 S 0,0
17.04.2018 03:00:00 8,6 4,8 39 21 67 36 S 0,0
17.04.2018 02:00:00 8,1 4,9 48 26 61 33 S 0,0
17.04.2018 01:00:00 7,7 5,2 37 20 61 33 S 0,0
17.04.2018 00:00:00 7,5 5,2 41 22 59 32 S 0,4
16.04.2018 23:00:00 7,6 4,9 41 22 63 34 S 0,4
16.04.2018 22:00:00 7,5 4,9 35 19 63 34 S 0,4
16.04.2018 21:00:00 8,4 4,0 35 19 61 33 S 0,0
16.04.2018 20:00:00 8,6 4,3 39 21 65 35 S 0,0
16.04.2018 19:00:00 9,0 4,2 42 23 63 34 S 0,0
16.04.2018 18:00:00 9,4 4,7 37 20 61 33 S 0,0
16.04.2018 17:00:00 11,1 4,9 37 20 61 33 S 0,0
16.04.2018 16:00:00 10,0 3,5 41 22 61 33 SSW 0,0
16.04.2018 15:00:00 11,9 6,6 34 18 63 34 S 0,0
16.04.2018 14:00:00 10,2 5,3 35 19 54 29 S 0,0
16.04.2018 13:00:00 9,9 6,4 31 17 - - SSW 0,0
16.04.2018 12:00:00 9,2 7,1 26 14 - - SW 0,0
16.04.2018 11:00:00 9,9 8,4 24 13 - - SW 0,4
16.04.2018 10:00:00 8,5 7,5 24 13 - - S 0,0
16.04.2018 09:00:00 7,9 7,0 28 15 - - S 0,0
16.04.2018 08:00:00 7,5 6,8 24 13 - - S 0,0
16.04.2018 07:00:00 7,4 6,7 24 13 - - S 0,0
16.04.2018 06:00:00 7,2 6,5 21 11 - - S 0,0
16.04.2018 05:00:00 7,7 7,3 16 9 - - S 0,0
16.04.2018 04:00:00 7,6 6,9 11 6 - - ESE 0,0
16.04.2018 03:00:00 7,3 6,7 13 7 - - SE 0,0
16.04.2018 02:00:00 6,9 6,6 15 8 - - ESE 0,0
16.04.2018 01:00:00 6,9 6,6 15 8 - - E 0,2
16.04.2018 00:00:00 7,8 7,3 16 9 - - ESE 0,4
15.04.2018 23:00:00 8,0 7,4 21 11 - - E 0,2
15.04.2018 22:00:00 7,9 7,2 18 10 - - E 0,4
15.04.2018 21:00:00 8,1 6,9 16 9 - - E 0,0
15.04.2018 20:00:00 8,6 6,9 22 12 46 25 ESE 0,4
15.04.2018 19:00:00 8,2 6,8 29 16 57 31 SE 0,6
15.04.2018 18:00:00 11,2 7,2 26 14 - - SE 0,0
15.04.2018 17:00:00 12,9 8,0 18 10 - - ESE 0,0
15.04.2018 16:00:00 13,2 8,2 24 13 46 25 ESE 0,0
15.04.2018 15:00:00 12,3 7,5 34 18 48 26 SE 0,0
15.04.2018 14:00:00 12,9 7,3 26 14 46 25 SE 0,0
15.04.2018 13:00:00 13,6 8,0 26 14 46 25 SE 0,0
15.04.2018 12:00:00 12,3 7,7 18 10 - - ESE 0,0

tt = Température de l'air
td = dewpoint
ff = Vitesse du vent
fx = gusts
dd = Direction du vent
rr = Quantités de précipitations

stations d'obs. à proximité